Time;durP1;ratioP1;P1;durP2;ratioP2;P2;SDS_P1;SDS_P2;PMS_P1;PMS_P2;Temp;Humidity;BMP_temperature;BMP_pressure;BME280_temperature;BME280_humidity;BME280_pressure;Samples;Min_cycle;Max_cycle;Signal;HPM_P1;HPM_P2
2021/06/02 00:02:04;;;;;;;3.00;1.60;;;12.60;99.90;;;;;;5049592;28;20372;-77
2021/06/02 00:04:33;;;;;;;2.53;1.58;;;12.70;99.90;;;;;;5048420;28;20380;-78
2021/06/02 00:07:06;;;;;;;5.70;1.70;;;12.80;99.90;;;;;;5050028;28;20397;-78
2021/06/02 00:09:34;;;;;;;5.32;1.70;;;12.80;99.90;;;;;;5048012;28;20411;-78
2021/06/02 00:12:04;;;;;;;2.13;1.17;;;13.00;99.90;;;;;;5049751;28;20395;-77
2021/06/02 00:14:31;;;;;;;4.27;1.50;;;13.20;99.90;;;;;;5049853;28;20379;-78
2021/06/02 00:16:59;;;;;;;3.30;1.50;;;13.40;99.90;;;;;;5049596;28;20418;-78
2021/06/02 00:19:27;;;;;;;1.98;1.50;;;13.50;99.90;;;;;;5049759;28;20384;-78
2021/06/02 00:21:56;;;;;;;4.57;1.33;;;13.60;99.90;;;;;;5070816;28;20370;-78
2021/06/02 00:24:24;;;;;;;4.90;1.55;;;14.00;99.90;;;;;;5060204;28;20376;-79
2021/06/02 00:27:02;;;;;;;3.90;1.83;;;14.20;99.90;;;;;;5048023;28;20429;-77
2021/06/02 00:29:39;;;;;;;10.57;1.83;;;14.20;99.90;;;;;;5046933;28;20383;-78
2021/06/02 00:32:07;;;;;;;5.38;1.90;;;14.20;99.90;;;;;;5048636;28;20487;-79
2021/06/02 00:34:36;;;;;;;3.63;1.83;;;14.10;99.90;;;;;;5047893;28;20412;-79
2021/06/02 00:37:06;;;;;;;4.75;1.80;;;14.10;99.90;;;;;;5049030;28;20384;-79
2021/06/02 00:39:34;;;;;;;2.17;1.42;;;14.10;99.90;;;;;;5066394;28;20374;-79
2021/06/02 00:42:01;;;;;;;4.95;1.50;;;14.20;99.90;;;;;;5068933;28;20735;-80
2021/06/02 00:44:28;;;;;;;2.90;1.23;;;14.20;99.90;;;;;;5069378;28;20381;-79
2021/06/02 00:47:00;;;;;;;4.82;1.50;;;14.30;99.90;;;;;;5055995;28;20388;-79
2021/06/02 00:49:27;;;;;;;2.10;1.50;;;14.40;99.90;;;;;;5048896;28;20388;-79
2021/06/02 00:52:08;;;;;;;3.13;1.80;;;14.40;99.90;;;;;;5049124;28;20479;-79
2021/06/02 00:54:37;;;;;;;2.97;1.57;;;14.60;99.90;;;;;;5048206;28;20459;-80
2021/06/02 00:57:20;;;;;;;3.58;1.48;;;14.70;99.90;;;;;;5048775;28;20415;-80
2021/06/02 01:00:07;;;;;;;4.57;1.52;;;14.70;99.90;;;;;;5049140;28;21000;-79
2021/06/02 01:02:36;;;;;;;2.42;1.80;;;14.80;99.90;;;;;;5061687;28;20386;-79
2021/06/02 01:05:05;;;;;;;3.70;2.08;;;15.00;99.90;;;;;;5059056;28;20392;-79
2021/06/02 01:07:34;;;;;;;4.10;2.27;;;15.10;99.90;;;;;;5058987;28;20396;-79
2021/06/02 01:10:01;;;;;;;2.35;1.67;;;15.20;99.90;;;;;;5048630;28;20392;-79
2021/06/02 01:12:30;;;;;;;3.20;1.67;;;15.30;99.90;;;;;;5052450;28;20517;-79
2021/06/02 01:14:58;;;;;;;5.10;1.60;;;15.40;99.90;;;;;;5056557;28;20463;-79
2021/06/02 01:17:31;;;;;;;3.72;1.80;;;15.50;99.90;;;;;;5048593;28;20392;-79
2021/06/02 01:20:00;;;;;;;3.80;1.65;;;15.60;99.90;;;;;;5068433;28;20382;-79
2021/06/02 01:22:33;;;;;;;5.88;1.80;;;15.70;99.90;;;;;;5068528;28;20810;-79
2021/06/02 01:25:12;;;;;;;5.80;1.80;;;15.80;99.90;;;;;;5068381;28;20370;-80
2021/06/02 01:27:40;;;;;;;3.95;1.70;;;15.80;99.90;;;;;;5067682;28;20404;-80
2021/06/02 01:30:16;;;;;;;3.63;1.40;;;15.80;99.90;;;;;;5068429;28;20398;-80
2021/06/02 01:32:53;;;;;;;7.50;1.33;;;15.90;99.90;;;;;;5068187;28;20490;-80
2021/06/02 01:35:38;;;;;;;5.17;1.40;;;16.10;99.90;;;;;;5055100;28;20426;-80
2021/06/02 01:38:23;;;;;;;2.08;1.20;;;16.20;99.90;;;;;;5056387;28;20440;-79
2021/06/02 01:41:13;;;;;;;2.53;1.50;;;16.40;99.90;;;;;;5060561;28;20409;-80
2021/06/02 01:44:17;;;;;;;2.33;1.45;;;16.40;99.90;;;;;;5054581;28;20391;-78
2021/06/02 01:47:20;;;;;;;2.70;1.20;;;16.50;99.90;;;;;;5061645;28;20402;-79
2021/06/02 01:50:41;;;;;;;1.00;1.00;;;16.50;99.90;;;;;;5072189;28;20873;-79
2021/06/02 01:53:41;;;;;;;3.30;0.88;;;16.60;99.90;;;;;;5022391;28;20463;-80
2021/06/02 01:56:29;;;;;;;3.63;1.20;;;16.70;99.90;;;;;;5080705;28;20593;-78
2021/06/02 01:59:08;;;;;;;7.28;1.20;;;16.70;99.90;;;;;;5066278;28;20396;-79
2021/06/02 02:02:02;;;;;;;3.10;1.10;;;16.80;99.90;;;;;;5061991;28;20393;-79
2021/06/02 02:04:55;;;;;;;3.25;1.52;;;16.90;99.90;;;;;;5071685;28;20439;-80
2021/06/02 02:07:26;;;;;;;4.35;1.30;;;17.10;99.90;;;;;;5036287;28;20391;-80
2021/06/02 02:10:18;;;;;;;1.65;1.50;;;17.10;99.90;;;;;;5054024;28;20910;-79
2021/06/02 02:12:48;;;;;;;4.43;1.50;;;17.30;99.90;;;;;;5051761;28;20395;-81
2021/06/02 02:15:27;;;;;;;3.08;1.45;;;17.30;99.90;;;;;;5060843;28;20401;-81
2021/06/02 02:18:34;;;;;;;2.33;1.55;;;17.30;99.90;;;;;;5053241;28;20407;-80
2021/06/02 02:21:27;;;;;;;4.93;1.90;;;17.30;99.90;;;;;;5062224;28;20468;-81
2021/06/02 02:24:08;;;;;;;4.43;1.67;;;17.30;99.90;;;;;;5072179;28;20371;-80
2021/06/02 02:26:37;;;;;;;3.70;1.55;;;17.40;99.90;;;;;;5069489;28;20465;-80
2021/06/02 02:29:41;;;;;;;3.08;1.30;;;17.40;99.90;;;;;;5064541;28;20401;-82
2021/06/02 02:32:32;;;;;;;4.13;1.23;;;17.40;99.90;;;;;;5059567;28;20414;-81
2021/06/02 02:35:31;;;;;;;2.10;1.42;;;17.40;99.90;;;;;;5067180;28;20385;-81
2021/06/02 02:38:29;;;;;;;3.70;1.70;;;17.50;99.90;;;;;;5059569;28;20818;-81
2021/06/02 02:41:08;;;;;;;1.97;0.93;;;17.60;99.00;;;;;;5059904;28;20897;-80
2021/06/02 02:43:52;;;;;;;2.08;0.90;;;17.60;98.00;;;;;;5057678;28;20487;-80
2021/06/02 02:46:37;;;;;;;2.45;1.17;;;17.70;97.10;;;;;;5068297;28;20387;-80
2021/06/02 02:49:29;;;;;;;1.90;0.70;;;17.80;97.60;;;;;;5060937;28;20382;-80
2021/06/02 02:52:24;;;;;;;1.73;0.98;;;17.80;95.70;;;;;;5054273;28;20402;-81
2021/06/02 02:55:02;;;;;;;2.33;0.97;;;17.80;94.30;;;;;;5071587;28;20370;-80
2021/06/02 02:57:44;;;;;;;2.63;0.90;;;17.80;94.90;;;;;;5069717;28;20869;-80
2021/06/02 03:00:16;;;;;;;1.38;1.00;;;17.90;94.80;;;;;;5064597;28;20406;-79
2021/06/02 03:02:59;;;;;;;3.55;1.17;;;17.90;95.70;;;;;;5063926;28;20420;-81
2021/06/02 03:05:34;;;;;;;2.10;1.10;;;17.90;96.90;;;;;;5060958;28;20995;-80
2021/06/02 03:08:09;;;;;;;4.95;1.42;;;17.90;97.70;;;;;;5057668;28;20404;-80
2021/06/02 03:10:57;;;;;;;5.03;1.65;;;17.90;97.00;;;;;;5059800;28;20408;-80
2021/06/02 03:13:47;;;;;;;2.40;1.23;;;18.10;96.60;;;;;;5050543;28;20388;-80
2021/06/02 03:16:22;;;;;;;3.67;1.20;;;18.10;97.00;;;;;;5050641;28;20398;-80
2021/06/02 03:19:05;;;;;;;4.13;1.60;;;18.10;96.10;;;;;;5050499;28;20368;-82
2021/06/02 03:21:47;;;;;;;1.73;1.38;;;18.10;94.90;;;;;;5060189;28;20472;-80
2021/06/02 03:24:23;;;;;;;2.67;1.25;;;18.10;95.10;;;;;;5070294;28;20419;-80
2021/06/02 03:26:55;;;;;;;4.13;1.30;;;18.10;95.30;;;;;;5070283;28;20469;-80
2021/06/02 03:29:55;;;;;;;3.13;1.40;;;18.10;95.50;;;;;;5070402;28;20902;-80
2021/06/02 03:32:43;;;;;;;3.83;1.50;;;18.00;96.20;;;;;;5068732;28;20394;-80
2021/06/02 03:35:52;;;;;;;2.85;1.70;;;18.10;96.60;;;;;;5069040;28;20405;-80
2021/06/02 03:38:52;;;;;;;2.63;1.52;;;18.00;97.60;;;;;;5055259;28;20423;-81
2021/06/02 03:41:29;;;;;;;2.60;1.30;;;18.00;95.80;;;;;;5070001;28;20389;-80
2021/06/02 03:44:15;;;;;;;1.85;1.17;;;18.00;95.60;;;;;;5070036;28;20421;-81
2021/06/02 03:47:00;;;;;;;3.33;1.48;;;18.10;95.20;;;;;;5069913;28;20373;-80
2021/06/02 03:49:45;;;;;;;2.42;1.40;;;18.10;94.20;;;;;;5069586;28;20427;-81
2021/06/02 03:52:35;;;;;;;2.55;1.20;;;18.10;94.50;;;;;;5069862;28;20379;-81
2021/06/02 03:55:14;;;;;;;1.98;1.10;;;18.10;95.50;;;;;;5051415;28;20396;-81
2021/06/02 03:57:51;;;;;;;1.60;1.15;;;18.00;95.00;;;;;;5049473;28;20380;-82
2021/06/02 04:00:20;;;;;;;2.03;1.33;;;18.00;94.70;;;;;;5050099;28;20375;-82
2021/06/02 04:03:02;;;;;;;3.60;1.20;;;18.10;95.10;;;;;;5059960;28;20382;-81
2021/06/02 04:05:51;;;;;;;2.60;1.00;;;18.10;94.00;;;;;;5068280;28;20381;-81
2021/06/02 04:08:34;;;;;;;5.18;1.05;;;18.20;95.00;;;;;;5062554;28;20494;-80
2021/06/02 04:11:42;;;;;;;2.42;1.05;;;18.10;94.30;;;;;;5049585;28;20418;-80
2021/06/02 04:14:11;;;;;;;2.20;0.95;;;18.10;95.20;;;;;;4987865;28;20385;-79
2021/06/02 04:16:42;;;;;;;4.00;1.10;;;18.20;94.30;;;;;;5044405;28;20539;-80
2021/06/02 04:19:16;;;;;;;2.50;1.05;;;18.20;94.00;;;;;;5069471;28;20457;-78
2021/06/02 04:21:46;;;;;;;7.22;1.02;;;18.20;93.50;;;;;;5069296;28;20375;-79
2021/06/02 04:24:17;;;;;;;1.10;1.00;;;18.10;93.40;;;;;;5068023;28;20424;-79
2021/06/02 04:26:47;;;;;;;2.75;0.95;;;18.10;93.70;;;;;;5068885;28;20458;-80
2021/06/02 04:29:15;;;;;;;2.88;1.00;;;18.10;94.00;;;;;;5049240;28;21096;-79
2021/06/02 04:32:04;;;;;;;2.08;1.10;;;18.10;93.70;;;;;;5049761;28;20442;-80
2021/06/02 04:34:36;;;;;;;2.10;0.90;;;18.10;94.30;;;;;;5047469;28;20764;-79
2021/06/02 04:37:06;;;;;;;1.55;0.73;;;18.10;93.20;;;;;;5047857;28;20407;-79
2021/06/02 04:39:37;;;;;;;1.40;1.00;;;18.10;92.90;;;;;;5066869;28;20385;-80
2021/06/02 04:42:06;;;;;;;3.08;0.80;;;18.10;92.10;;;;;;5066000;28;20409;-79
2021/06/02 04:44:35;;;;;;;2.58;1.00;;;18.10;92.20;;;;;;5069228;28;20880;-79
2021/06/02 04:47:03;;;;;;;1.80;0.80;;;18.00;93.10;;;;;;5069094;28;20378;-80
2021/06/02 04:49:45;;;;;;;1.37;0.90;;;18.00;90.80;;;;;;5057564;28;20379;-79
2021/06/02 04:52:31;;;;;;;1.55;0.73;;;18.10;91.50;;;;;;5062302;28;20400;-78
2021/06/02 04:55:19;;;;;;;1.58;0.85;;;18.10;91.00;;;;;;5061269;28;20382;-80
2021/06/02 04:58:07;;;;;;;1.25;0.88;;;18.00;92.00;;;;;;5055813;28;20483;-79
2021/06/02 05:00:36;;;;;;;3.60;0.80;;;18.00;91.70;;;;;;5055891;28;20453;-79
2021/06/02 05:03:22;;;;;;;2.38;0.93;;;17.90;91.40;;;;;;5055431;28;20401;-79
2021/06/02 05:06:07;;;;;;;2.25;0.90;;;17.90;92.10;;;;;;5052174;28;20390;-79
2021/06/02 05:09:03;;;;;;;1.50;0.90;;;17.80;92.50;;;;;;5051363;28;20390;-79
2021/06/02 05:11:55;;;;;;;2.17;0.60;;;17.70;92.30;;;;;;5059555;28;20413;-79
2021/06/02 05:14:31;;;;;;;3.15;0.90;;;17.80;92.00;;;;;;5066593;28;20402;-79
2021/06/02 05:17:36;;;;;;;3.15;0.90;;;17.70;91.80;;;;;;5064653;28;20402;-79
2021/06/02 05:22:04;;;;;;;1.75;1.00;;;17.70;93.00;;;;;;5068221;28;20473;-80
2021/06/02 05:23:49;;;;;;;1.80;1.00;;;17.60;93.90;;;;;;5061790;28;20404;-80
2021/06/02 05:26:34;;;;;;;3.92;1.10;;;17.50;93.80;;;;;;5064497;28;20406;-79
2021/06/02 05:29:47;;;;;;;1.88;0.95;;;17.40;94.30;;;;;;5068198;28;20394;-79
2021/06/02 05:32:15;;;;;;;1.05;0.77;;;17.30;94.60;;;;;;5069229;28;20510;-79
2021/06/02 05:35:20;;;;;;;1.85;1.10;;;17.30;94.90;;;;;;5063931;28;20477;-80
2021/06/02 05:37:56;;;;;;;3.20;1.25;;;17.20;95.40;;;;;;5070067;28;20402;-79
2021/06/02 05:40:41;;;;;;;3.25;1.08;;;17.20;95.60;;;;;;5066895;28;20451;-79
2021/06/02 05:43:23;;;;;;;1.05;0.70;;;17.10;95.80;;;;;;5067135;28;20401;-79
2021/06/02 05:46:09;;;;;;;2.85;0.82;;;17.10;95.80;;;;;;5070138;28;20420;-79
2021/06/02 05:49:03;;;;;;;2.55;1.00;;;17.00;96.10;;;;;;5064961;28;20459;-79
2021/06/02 05:51:33;;;;;;;2.85;0.70;;;16.90;96.60;;;;;;5068892;28;20409;-79
2021/06/02 05:54:03;;;;;;;2.47;1.50;;;16.90;97.00;;;;;;5068569;28;20811;-80
2021/06/02 05:56:42;;;;;;;2.40;1.47;;;16.80;97.60;;;;;;5075199;28;20483;-80
2021/06/02 05:59:28;;;;;;;4.28;1.85;;;16.80;98.50;;;;;;5070981;28;20397;-80
2021/06/02 06:02:19;;;;;;;5.72;4.00;;;16.70;99.30;;;;;;5068088;28;20485;-79
2021/06/02 06:05:17;;;;;;;3.60;1.77;;;16.70;99.40;;;;;;5069113;28;20458;-80
2021/06/02 06:08:10;;;;;;;3.45;1.02;;;16.60;99.70;;;;;;5065758;28;20395;-80
2021/06/02 06:11:07;;;;;;;3.10;1.30;;;16.60;99.90;;;;;;5055552;28;20859;-80
2021/06/02 06:13:58;;;;;;;3.60;1.13;;;16.50;99.90;;;;;;5062984;28;20449;-80
2021/06/02 06:16:50;;;;;;;2.50;1.17;;;16.40;99.90;;;;;;5059548;28;20387;-81
2021/06/02 06:19:53;;;;;;;3.72;1.30;;;16.30;99.90;;;;;;5058549;28;20449;-80
2021/06/02 06:22:57;;;;;;;2.00;1.35;;;16.20;99.90;;;;;;5060522;28;20413;-81
2021/06/02 06:25:32;;;;;;;1.70;1.40;;;16.10;99.90;;;;;;5065624;28;20879;-80
2021/06/02 06:28:19;;;;;;;3.20;1.80;;;16.00;99.90;;;;;;5073237;28;20394;-81
2021/06/02 06:30:50;;;;;;;2.38;1.75;;;15.90;99.90;;;;;;5056774;28;20414;-79
2021/06/02 06:33:20;;;;;;;2.70;1.42;;;15.90;99.90;;;;;;5064714;28;20539;-80
2021/06/02 06:35:48;;;;;;;5.75;1.27;;;15.90;99.90;;;;;;5069747;28;20412;-80
2021/06/02 06:38:57;;;;;;;2.63;1.48;;;15.90;99.90;;;;;;5068403;28;20524;-80
2021/06/02 06:41:27;;;;;;;2.72;1.50;;;15.80;99.90;;;;;;5020716;28;20388;-80
2021/06/02 06:43:56;;;;;;;1.90;0.90;;;15.70;99.90;;;;;;5066372;28;20484;-80
2021/06/02 06:46:26;;;;;;;2.03;0.80;;;15.60;99.90;;;;;;5069589;28;20857;-80
2021/06/02 06:48:57;;;;;;;3.38;1.10;;;15.50;99.90;;;;;;5060747;28;20387;-80
2021/06/02 06:51:28;;;;;;;1.70;1.50;;;15.40;99.90;;;;;;5055438;28;20417;-80
2021/06/02 06:53:57;;;;;;;2.42;1.23;;;15.40;99.90;;;;;;5065666;28;20382;-80
2021/06/02 06:56:27;;;;;;;4.07;2.00;;;15.30;99.90;;;;;;5065802;28;20444;-80
2021/06/02 06:58:55;;;;;;;2.22;1.60;;;15.20;99.90;;;;;;5060355;28;20394;-80
2021/06/02 07:01:22;;;;;;;2.63;2.10;;;15.20;99.90;;;;;;5064460;28;20924;-80
2021/06/02 07:03:50;;;;;;;4.95;2.75;;;15.10;99.90;;;;;;5069686;28;20777;-81
2021/06/02 07:06:17;;;;;;;4.07;2.30;;;15.10;99.90;;;;;;5078140;28;20374;-80
2021/06/02 07:08:45;;;;;;;4.07;3.22;;;15.00;99.90;;;;;;5076355;28;20386;-80
2021/06/02 07:11:17;;;;;;;5.40;2.75;;;15.00;99.90;;;;;;5071283;28;20446;-81
2021/06/02 07:13:48;;;;;;;3.00;1.50;;;14.90;99.90;;;;;;5061340;28;20379;-80
2021/06/02 07:16:16;;;;;;;3.17;2.00;;;14.90;99.90;;;;;;5065177;28;20466;-80
2021/06/02 07:18:45;;;;;;;2.70;2.25;;;14.80;99.90;;;;;;5069758;28;20726;-80
2021/06/02 07:21:14;;;;;;;3.50;2.58;;;14.70;99.90;;;;;;5058413;28;20388;-80
2021/06/02 07:23:42;;;;;;;2.92;1.40;;;14.70;99.90;;;;;;5062207;28;20386;-80
2021/06/02 07:26:09;;;;;;;1.98;1.20;;;14.70;99.90;;;;;;5061201;28;20382;-80
2021/06/02 07:28:41;;;;;;;4.20;3.30;;;14.60;99.90;;;;;;5052442;28;20988;-81
2021/06/02 07:31:09;;;;;;;13.02;9.15;;;14.60;99.90;;;;;;5069235;28;20562;-81
2021/06/02 07:33:37;;;;;;;10.27;7.55;;;14.50;99.90;;;;;;5053047;28;20411;-82
2021/06/02 07:36:08;;;;;;;7.72;6.30;;;14.40;99.90;;;;;;5054176;28;20398;-80
2021/06/02 07:38:35;;;;;;;9.03;7.00;;;14.30;99.90;;;;;;5069704;28;20525;-80
2021/06/02 07:41:02;;;;;;;7.38;3.53;;;14.30;99.90;;;;;;5067853;28;20399;-81
2021/06/02 07:43:29;;;;;;;6.75;1.92;;;14.10;99.90;;;;;;5060940;28;20385;-79
2021/06/02 07:45:57;;;;;;;2.83;1.80;;;14.20;99.90;;;;;;5057591;28;20958;-80
2021/06/02 07:48:24;;;;;;;3.20;1.52;;;14.10;99.90;;;;;;5059680;28;20394;-81
2021/06/02 07:50:51;;;;;;;3.00;1.70;;;14.00;99.90;;;;;;5058017;28;20419;-81
2021/06/02 07:53:18;;;;;;;4.05;1.88;;;13.90;99.90;;;;;;5058349;28;20743;-80
2021/06/02 07:55:45;;;;;;;4.50;2.20;;;13.90;99.90;;;;;;5048594;28;20380;-82
2021/06/02 07:58:12;;;;;;;5.75;2.47;;;13.80;99.90;;;;;;5059576;28;20380;-81
2021/06/02 08:00:39;;;;;;;5.75;2.70;;;13.80;99.90;;;;;;5064464;28;20390;-81
2021/06/02 08:03:06;;;;;;;4.38;2.60;;;13.80;99.90;;;;;;5066107;28;20763;-81
2021/06/02 08:05:33;;;;;;;6.85;2.80;;;13.80;99.90;;;;;;5055304;28;20404;-81
2021/06/02 08:08:00;;;;;;;4.53;2.72;;;13.70;99.90;;;;;;5065318;28;20450;-82
2021/06/02 08:10:27;;;;;;;6.65;2.78;;;13.70;99.90;;;;;;5069401;28;20431;-83
2021/06/02 08:12:54;;;;;;;4.95;2.25;;;13.70;99.90;;;;;;5051040;28;20383;-82
2021/06/02 08:15:21;;;;;;;6.25;2.67;;;13.70;99.90;;;;;;5051334;28;20461;-83
2021/06/02 08:17:49;;;;;;;6.80;2.20;;;13.60;99.90;;;;;;5049999;28;20815;-83
2021/06/02 08:20:17;;;;;;;3.95;2.63;;;13.60;99.90;;;;;;5063715;28;20394;-84
2021/06/02 08:22:44;;;;;;;6.97;2.38;;;13.60;99.90;;;;;;5058175;28;20379;-83
2021/06/02 08:25:14;;;;;;;5.00;2.50;;;13.60;99.90;;;;;;5050125;28;20476;-84
2021/06/02 08:27:41;;;;;;;5.57;2.40;;;13.50;99.90;;;;;;5054927;28;20367;-85
2021/06/02 08:30:10;;;;;;;4.53;2.15;;;13.40;99.90;;;;;;5068559;28;20394;-83
2021/06/02 08:32:38;;;;;;;6.85;2.10;;;13.40;99.90;;;;;;5061984;28;20408;-84
2021/06/02 08:35:08;;;;;;;7.35;2.28;;;13.40;99.90;;;;;;5060214;28;20395;-84
2021/06/02 08:37:35;;;;;;;4.28;2.17;;;13.40;99.90;;;;;;5063087;28;20396;-83
2021/06/02 08:40:03;;;;;;;3.65;2.42;;;13.40;99.90;;;;;;5062314;28;20412;-83
2021/06/02 08:42:30;;;;;;;7.80;2.80;;;13.30;99.90;;;;;;5052221;28;20866;-83
2021/06/02 08:44:57;;;;;;;6.30;2.28;;;13.40;99.90;;;;;;5058984;28;20429;-84
2021/06/02 08:47:24;;;;;;;4.07;2.13;;;13.40;99.90;;;;;;5064839;28;20405;-83
2021/06/02 08:49:51;;;;;;;5.45;2.22;;;13.40;99.90;;;;;;5051038;28;20456;-83
2021/06/02 08:52:19;;;;;;;5.63;2.55;;;13.30;99.90;;;;;;5054558;28;20402;-82
2021/06/02 08:54:46;;;;;;;6.33;2.40;;;13.40;99.90;;;;;;5052742;28;20917;-81
2021/06/02 08:57:13;;;;;;;3.80;2.20;;;13.40;99.90;;;;;;5057138;28;20397;-81
2021/06/02 08:59:40;;;;;;;5.10;2.33;;;13.40;99.90;;;;;;5056293;28;20396;-83
2021/06/02 09:02:07;;;;;;;6.15;2.20;;;13.40;99.90;;;;;;5061679;28;20397;-80
2021/06/02 09:04:34;;;;;;;6.05;2.28;;;13.50;99.90;;;;;;5064654;28;20382;-80
2021/06/02 09:07:06;;;;;;;8.32;2.30;;;13.50;99.90;;;;;;5047812;28;20431;-81
2021/06/02 09:09:34;;;;;;;5.30;2.15;;;13.50;99.90;;;;;;5063192;28;21255;-81
2021/06/02 09:12:12;;;;;;;5.57;2.38;;;13.40;99.90;;;;;;5047663;28;20411;-82
2021/06/02 09:14:40;;;;;;;6.55;2.45;;;13.30;99.90;;;;;;5063523;28;20386;-82
2021/06/02 09:17:14;;;;;;;6.77;2.73;;;13.30;99.90;;;;;;5045596;28;20395;-82
2021/06/02 09:19:46;;;;;;;4.80;3.00;;;13.20;99.90;;;;;;5064357;28;20477;-81
2021/06/02 09:22:23;;;;;;;6.78;2.75;;;13.20;99.90;;;;;;5062717;28;20424;-81
2021/06/02 09:25:02;;;;;;;7.60;2.45;;;13.20;99.90;;;;;;5064710;28;20398;-82
2021/06/02 09:27:50;;;;;;;7.38;2.10;;;13.20;99.90;;;;;;5061006;28;20847;-82
2021/06/02 09:30:22;;;;;;;6.28;2.38;;;13.20;99.90;;;;;;5054500;28;20404;-82
2021/06/02 09:32:53;;;;;;;3.65;2.03;;;13.30;99.90;;;;;;5059255;28;20405;-82
2021/06/02 09:35:34;;;;;;;7.65;2.47;;;13.40;99.90;;;;;;5047432;28;20383;-82
2021/06/02 09:38:01;;;;;;;4.83;1.97;;;13.50;99.90;;;;;;5059863;28;20401;-81
2021/06/02 09:40:32;;;;;;;7.38;2.08;;;13.50;99.90;;;;;;5065497;28;20385;-81
2021/06/02 09:42:59;;;;;;;4.72;2.00;;;13.50;99.90;;;;;;5059806;28;20382;-83
2021/06/02 09:45:27;;;;;;;4.57;1.98;;;13.50;99.90;;;;;;5046075;28;20398;-82
2021/06/02 09:47:57;;;;;;;5.60;2.38;;;13.60;99.90;;;;;;5064882;28;20489;-82
2021/06/02 09:50:28;;;;;;;8.65;2.40;;;13.50;99.90;;;;;;5065537;28;22021;-82
2021/06/02 09:52:57;;;;;;;6.65;2.15;;;13.50;99.90;;;;;;5053587;28;20755;-83
2021/06/02 09:55:41;;;;;;;5.07;2.40;;;13.50;99.90;;;;;;5049587;28;20407;-81
2021/06/02 09:58:10;;;;;;;5.07;2.00;;;13.40;99.90;;;;;;5055071;28;20799;-81
2021/06/02 10:00:37;;;;;;;7.30;2.28;;;13.40;99.90;;;;;;5055845;28;21171;-83
2021/06/02 10:03:21;;;;;;;3.78;1.90;;;13.40;99.90;;;;;;5049505;28;20387;-82
2021/06/02 10:05:53;;;;;;;5.27;1.97;;;13.50;99.90;;;;;;5052023;28;20408;-81
2021/06/02 10:08:29;;;;;;;7.93;2.00;;;13.50;99.90;;;;;;5065789;28;20386;-81
2021/06/02 10:10:57;;;;;;;6.95;1.85;;;13.50;99.90;;;;;;5054481;28;20415;-81
2021/06/02 10:13:27;;;;;;;4.97;2.83;;;13.50;99.90;;;;;;5061928;28;20401;-81
2021/06/02 10:15:54;;;;;;;8.55;2.92;;;13.50;99.90;;;;;;5055903;28;20484;-81
2021/06/02 10:18:32;;;;;;;4.70;2.55;;;13.50;99.90;;;;;;5061811;28;20559;-81
2021/06/02 10:21:13;;;;;;;4.97;2.70;;;13.40;99.90;;;;;;5051577;28;20406;-81
2021/06/02 10:23:43;;;;;;;9.43;3.00;;;13.30;99.90;;;;;;5065389;28;20893;-81
2021/06/02 10:26:14;;;;;;;7.97;2.63;;;13.20;99.90;;;;;;5068147;28;20398;-80
2021/06/02 10:28:43;;;;;;;6.75;2.63;;;13.20;99.90;;;;;;5068738;28;20423;-81
2021/06/02 10:31:13;;;;;;;5.32;2.28;;;13.20;99.90;;;;;;5067516;28;20414;-81
2021/06/02 10:33:41;;;;;;;8.77;2.40;;;13.20;99.90;;;;;;5065736;28;20518;-82
2021/06/02 10:36:10;;;;;;;5.90;2.80;;;13.10;99.90;;;;;;5068553;28;20389;-81
2021/06/02 10:38:46;;;;;;;6.47;2.60;;;13.10;99.90;;;;;;5066862;28;20397;-81
2021/06/02 10:41:37;;;;;;;6.45;2.88;;;13.00;99.90;;;;;;5063834;28;20486;-81
2021/06/02 10:44:12;;;;;;;5.45;2.70;;;13.00;99.90;;;;;;5062413;28;20394;-81
2021/06/02 10:46:43;;;;;;;9.73;2.80;;;13.00;99.90;;;;;;5063801;28;20444;-80
2021/06/02 10:49:12;;;;;;;10.10;2.80;;;12.90;99.90;;;;;;5050360;28;20380;-81
2021/06/02 10:51:39;;;;;;;6.38;2.83;;;12.80;99.90;;;;;;5058866;28;20403;-81
2021/06/02 10:54:11;;;;;;;5.32;2.25;;;12.70;99.90;;;;;;5047680;28;20403;-81
2021/06/02 10:56:41;;;;;;;7.25;2.70;;;12.60;99.90;;;;;;5055116;28;20382;-81
2021/06/02 10:59:27;;;;;;;6.22;2.80;;;12.60;99.90;;;;;;5066910;28;20405;-81
2021/06/02 11:02:17;;;;;;;7.32;2.58;;;12.50;99.90;;;;;;5047036;28;20420;-81
2021/06/02 11:04:56;;;;;;;7.50;2.60;;;12.50;99.90;;;;;;5057686;28;20394;-81
2021/06/02 11:07:27;;;;;;;4.80;2.65;;;12.50;99.90;;;;;;5065905;28;20484;-81
2021/06/02 11:10:01;;;;;;;6.07;3.10;;;12.40;99.90;;;;;;5067090;28;20817;-81
2021/06/02 11:12:52;;;;;;;8.48;3.25;;;12.30;99.90;;;;;;5055157;28;20395;-81
2021/06/02 11:15:29;;;;;;;6.53;2.88;;;12.20;99.90;;;;;;5062804;28;20870;-84
2021/06/02 11:18:12;;;;;;;4.75;2.97;;;12.10;99.90;;;;;;5061475;28;20417;-82
2021/06/02 11:20:45;;;;;;;4.43;2.88;;;12.10;99.90;;;;;;5063161;28;20429;-82
2021/06/02 11:23:15;;;;;;;4.60;2.80;;;12.10;99.90;;;;;;5061038;28;20390;-81
2021/06/02 11:25:43;;;;;;;6.97;2.90;;;12.10;99.90;;;;;;5066227;28;20401;-81
2021/06/02 11:28:50;;;;;;;5.10;2.47;;;12.10;99.90;;;;;;5065757;28;20384;-82
2021/06/02 11:31:31;;;;;;;5.27;2.60;;;12.20;99.90;;;;;;5050443;28;20418;-83
2021/06/02 11:34:26;;;;;;;8.38;2.80;;;12.30;99.90;;;;;;5060789;28;20409;-82
2021/06/02 11:37:00;;;;;;;4.72;2.58;;;12.40;99.90;;;;;;5064978;28;20402;-82
2021/06/02 11:39:27;;;;;;;6.25;2.53;;;12.50;99.90;;;;;;5055681;28;20419;-81
2021/06/02 11:42:00;;;;;;;8.52;2.75;;;12.50;99.90;;;;;;5064753;28;20520;-81
2021/06/02 11:44:28;;;;;;;5.22;2.63;;;12.60;99.90;;;;;;5062614;28;20401;-80
2021/06/02 11:46:55;;;;;;;5.23;2.73;;;12.60;99.90;;;;;;5058079;28;20476;-80
2021/06/02 11:49:30;;;;;;;8.82;3.10;;;12.60;99.90;;;;;;5058508;28;20395;-80
2021/06/02 11:52:10;;;;;;;8.50;2.88;;;12.60;99.90;;;;;;5066488;28;20449;-81
2021/06/02 11:54:58;;;;;;;5.93;3.40;;;12.60;99.90;;;;;;5060777;28;20385;-81
2021/06/02 11:57:30;;;;;;;5.47;2.75;;;12.50;99.90;;;;;;5052417;28;20482;-81
2021/06/02 11:59:59;;;;;;;5.68;2.90;;;12.40;99.90;;;;;;5059513;28;20789;-81
2021/06/02 12:02:26;;;;;;;7.03;3.22;;;12.40;99.90;;;;;;5066349;28;20421;-81
2021/06/02 12:04:53;;;;;;;7.72;3.17;;;12.30;99.90;;;;;;5064465;28;20382;-81
2021/06/02 12:07:25;;;;;;;5.77;3.23;;;12.30;99.90;;;;;;5069420;28;20390;-81
2021/06/02 12:09:57;;;;;;;6.60;3.37;;;12.30;99.90;;;;;;5055727;28;20451;-81
2021/06/02 12:12:25;;;;;;;6.68;3.00;;;12.20;99.90;;;;;;5050608;28;20395;-81
2021/06/02 12:15:01;;;;;;;7.20;2.90;;;12.10;99.90;;;;;;5054963;28;20905;-81
2021/06/02 12:17:29;;;;;;;7.35;3.40;;;12.10;99.90;;;;;;5061289;28;20472;-81
2021/06/02 12:20:01;;;;;;;7.15;3.08;;;12.10;99.90;;;;;;5048137;28;20380;-81
2021/06/02 12:22:28;;;;;;;7.78;2.80;;;12.10;99.90;;;;;;5049145;28;20387;-81
2021/06/02 12:25:09;;;;;;;9.02;2.90;;;12.10;99.90;;;;;;5048576;28;20392;-81
2021/06/02 12:27:53;;;;;;;6.80;2.83;;;12.10;99.90;;;;;;5060333;28;20761;-81
2021/06/02 12:30:25;;;;;;;5.95;2.70;;;12.10;99.90;;;;;;5068869;28;20468;-81
2021/06/02 12:32:53;;;;;;;6.90;2.60;;;12.10;99.90;;;;;;5067551;28;20831;-81
2021/06/02 12:35:44;;;;;;;7.00;2.47;;;12.10;99.90;;;;;;5068705;28;20378;-81
2021/06/02 12:38:28;;;;;;;7.70;2.63;;;12.10;99.90;;;;;;5068748;28;20409;-81
2021/06/02 12:40:59;;;;;;;5.43;3.25;;;12.00;99.90;;;;;;5069013;28;20714;-81
2021/06/02 12:43:40;;;;;;;5.22;2.22;;;12.00;99.90;;;;;;5064482;28;20396;-81
2021/06/02 12:46:13;;;;;;;6.57;3.05;;;11.90;99.90;;;;;;5048973;28;20391;-81
2021/06/02 12:48:41;;;;;;;5.85;2.90;;;11.90;99.90;;;;;;5051107;28;20410;-81
2021/06/02 12:51:17;;;;;;;7.43;3.20;;;11.80;99.90;;;;;;5068650;28;20485;-81
2021/06/02 12:53:46;;;;;;;9.55;3.20;;;11.80;99.90;;;;;;5052843;28;20442;-81
2021/06/02 12:56:15;;;;;;;6.93;2.80;;;11.80;99.90;;;;;;5048874;28;20395;-81
2021/06/02 12:58:53;;;;;;;5.35;2.88;;;11.80;99.90;;;;;;5046703;28;20375;-81
2021/06/02 13:01:21;;;;;;;7.50;3.22;;;11.70;99.90;;;;;;5051207;28;20411;-81
2021/06/02 13:03:51;;;;;;;6.95;3.33;;;11.60;99.90;;;;;;5048097;28;20380;-81
2021/06/02 13:06:23;;;;;;;6.70;3.47;;;11.50;99.90;;;;;;5047039;28;20723;-81
2021/06/02 13:08:51;;;;;;;7.25;3.30;;;11.50;99.90;;;;;;5052198;28;20396;-81
2021/06/02 13:11:31;;;;;;;7.63;3.15;;;11.50;99.90;;;;;;5065467;28;20398;-81
2021/06/02 13:14:01;;;;;;;11.20;3.10;;;11.50;99.90;;;;;;5066669;28;20435;-81
2021/06/02 13:16:29;;;;;;;11.57;3.45;;;11.60;99.90;;;;;;5067270;28;20469;-81
2021/06/02 13:19:00;;;;;;;6.63;3.13;;;11.50;99.90;;;;;;5067922;28;20428;-81
2021/06/02 13:21:30;;;;;;;5.07;2.83;;;11.50;99.90;;;;;;5068307;28;20414;-81
2021/06/02 13:24:17;;;;;;;5.05;2.70;;;11.50;99.90;;;;;;5069102;28;20424;-81
2021/06/02 13:26:51;;;;;;;6.50;3.00;;;11.60;99.90;;;;;;5048757;28;20404;-81
2021/06/02 13:29:18;;;;;;;8.90;2.90;;;11.60;99.90;;;;;;5048795;28;20378;-81
2021/06/02 13:31:53;;;;;;;7.57;3.28;;;11.60;99.90;;;;;;5067161;28;20409;-81
2021/06/02 13:34:36;;;;;;;4.97;2.80;;;11.60;99.90;;;;;;5050163;28;20399;-81